Pierz, Minnesota
Current Conditions -  °F | °C
As of 10:18 AM on Monday 22 Dec 2014 (Local Time) from KLXL Reporting Station
Unknown Precip Unknown Precip  
Wind Chill: 28°   Ceiling: 400
Heat Index: 36°   Visibility: 1.2mi
Dew Point: 34°   Wind: 10mph
Humidity: 93%   Direction: 120°ESE
Pressure: 29.6"   Gusts: 18mph
Location:  45.98°N, 94.1°W
Report Text: KLXL 221618Z AUTO 12009G16KT 1 1/4SM UP OVC004 02/01 A2960 RMK AO2
Loading
Personal Weather Stations






























Interactive Weather Map New forecast layout! Learn more

10-Day Weather Forecast

Advertisements
Track Severe Weather on mobile